Terminal Aerodrome Forecast
Issued by NWS

Home | Current Version | Previous Version | Text Only | Print | Product List | Glossary On
Versions: 1 2 3 4 5 6 7 8 9 10 11 12 13 14 15 16 17 18 19
000
FTUS46 KSEW 251723
TAFCLM
TAF
KCLM 251723Z 2518/2618 30007KT P6SM SCT220
     FM260100 29012G22KT P6SM SCT220
     FM261000 28008KT P6SM OVC005=

USA.gov is the U.S. government's official web portal to all federal, state and local government web resources and services.